Time;durP1;ratioP1;P1;durP2;ratioP2;P2;SDS_P1;SDS_P2;PMS_P1;PMS_P2;Temp;Humidity;BMP_temperature;BMP_pressure;BME280_temperature;BME280_humidity;BME280_pressure;Samples;Min_cycle;Max_cycle;Signal;HPM_P1;HPM_P2
2022/01/18 00:00:42;;;;;;;17.80;2.10;;;;;;;-0.52;79.85;101518.48;105701;1270;411665;-59
2022/01/18 00:03:17;;;;;;;14.40;1.90;;;;;;;-0.52;79.85;101520.76;106132;1270;25267;-59
2022/01/18 00:05:50;;;;;;;14.20;2.20;;;;;;;-0.52;79.85;101528.36;106122;1270;22565;-60
2022/01/18 00:08:21;;;;;;;12.30;1.70;;;;;;;-0.51;79.81;101530.80;105882;1270;22609;-59
2022/01/18 00:10:52;;;;;;;21.10;2.30;;;;;;;-0.52;79.73;101532.27;105976;1271;22554;-60
2022/01/18 00:13:36;;;;;;;22.00;2.60;;;;;;;-0.54;79.77;101536.95;105968;1270;22537;-59
2022/01/18 00:16:23;;;;;;;17.70;2.20;;;;;;;-0.54;79.76;101536.39;106020;1270;23445;-60
2022/01/18 00:18:54;;;;;;;19.30;2.40;;;;;;;-0.57;79.80;101545.85;106096;1270;24259;-59
2022/01/18 00:21:36;;;;;;;18.40;2.20;;;;;;;-0.57;79.86;101547.88;106172;1270;22929;-60
2022/01/18 00:24:10;;;;;;;12.70;1.90;;;;;;;-0.57;79.84;101548.98;106036;1270;22556;-60
2022/01/18 00:26:41;;;;;;;13.10;1.30;;;;;;;-0.57;79.88;101554.05;105949;1270;24288;-60
2022/01/18 00:29:16;;;;;;;14.30;1.90;;;;;;;-0.58;79.79;101553.98;106320;1270;25438;-59
2022/01/18 00:32:06;;;;;;;13.40;1.90;;;;;;;-0.59;79.78;101558.52;105970;1270;22680;-59
2022/01/18 00:34:40;;;;;;;15.20;1.50;;;;;;;-0.59;79.83;101562.98;105980;1270;24208;-60
2022/01/18 00:37:27;;;;;;;15.10;1.50;;;;;;;-0.60;79.87;101569.31;106070;1271;22682;-60
2022/01/18 00:39:58;;;;;;;13.60;1.50;;;;;;;-0.61;79.82;101574.94;106021;1270;22541;-60
2022/01/18 00:42:29;;;;;;;13.40;1.70;;;;;;;-0.62;79.81;101577.98;105928;1270;23330;-59
2022/01/18 00:45:01;;;;;;;18.00;1.60;;;;;;;-0.63;79.97;101577.66;106017;1271;23164;-60
2022/01/18 00:47:32;;;;;;;12.80;1.30;;;;;;;-0.63;79.95;101576.95;106084;1270;22560;-59
2022/01/18 00:50:04;;;;;;;10.60;1.10;;;;;;;-0.62;79.96;101577.59;106043;1271;26729;-60
2022/01/18 00:52:41;;;;;;;18.80;2.10;;;;;;;-0.62;80.04;101575.31;106192;1270;24245;-59
2022/01/18 00:55:14;;;;;;;17.90;1.60;;;;;;;-0.63;79.91;101580.87;106102;1271;22563;-63
2022/01/18 00:57:45;;;;;;;12.90;2.00;;;;;;;-0.64;79.98;101587.44;106140;1270;22535;-59
2022/01/18 01:00:17;;;;;;;11.90;1.90;;;;;;;-0.64;79.96;101586.26;105957;1270;22564;-61
2022/01/18 01:02:48;;;;;;;13.50;1.70;;;;;;;-0.65;80.05;101586.10;105979;1270;22571;-61
2022/01/18 01:05:20;;;;;;;13.40;2.10;;;;;;;-0.65;80.05;101583.59;105820;1270;22558;-59
2022/01/18 01:07:51;;;;;;;12.30;1.80;;;;;;;-0.66;80.01;101578.54;106090;1271;22762;-60
2022/01/18 01:10:23;;;;;;;14.70;1.20;;;;;;;-0.67;80.06;101585.20;105888;1270;22547;-63
2022/01/18 01:12:55;;;;;;;13.70;1.50;;;;;;;-0.68;80.16;101582.60;106102;1270;24424;-60
2022/01/18 01:15:28;;;;;;;14.50;1.80;;;;;;;-0.68;80.17;101585.66;105973;1270;25258;-59
2022/01/18 01:18:14;;;;;;;11.70;1.20;;;;;;;-0.69;80.13;101588.46;105903;1270;24263;-60
2022/01/18 01:32:21;;;;;;;17.50;1.40;;;;;;;-0.73;80.32;101597.73;105832;1270;26849;-60
2022/01/18 01:34:57;;;;;;;19.00;2.00;;;;;;;-0.74;80.29;101602.58;105921;1270;24272;-59
2022/01/18 01:43:18;;;;;;;17.10;2.50;;;;;;;-0.76;80.49;101595.09;106030;1270;22633;-62
2022/01/18 01:45:50;;;;;;;14.90;1.90;;;;;;;-0.77;80.60;101601.90;106054;1270;22565;-62
2022/01/18 01:48:23;;;;;;;20.60;1.60;;;;;;;-0.78;80.57;101602.82;106051;1270;24259;-61
2022/01/18 01:51:02;;;;;;;11.70;1.10;;;;;;;-0.77;80.73;101597.34;106094;1270;22978;-62
2022/01/18 01:53:36;;;;;;;14.30;1.20;;;;;;;-0.76;80.67;101593.76;106057;1271;24372;-60
2022/01/18 01:56:07;;;;;;;13.40;1.60;;;;;;;-0.77;80.71;101593.75;106108;1271;22541;-62
2022/01/18 01:58:40;;;;;;;21.00;1.70;;;;;;;-0.77;80.74;101593.52;106124;1270;22567;-62
2022/01/18 02:01:11;;;;;;;15.20;1.70;;;;;;;-0.77;80.73;101591.00;105974;1270;22593;-60
2022/01/18 02:03:42;;;;;;;16.60;1.30;;;;;;;-0.78;80.78;101584.80;106147;1270;22646;-60
2022/01/18 02:06:13;;;;;;;13.60;1.50;;;;;;;-0.79;80.86;101581.81;106094;1270;22622;-60
2022/01/18 02:08:45;;;;;;;9.30;1.20;;;;;;;-0.80;80.94;101580.55;106121;1271;22566;-59
2022/01/18 02:11:17;;;;;;;19.70;2.00;;;;;;;-0.80;80.91;101586.73;106006;1271;22614;-59
2022/01/18 02:13:50;;;;;;;18.50;1.80;;;;;;;-0.82;80.91;101591.01;106146;1270;24415;-60
2022/01/18 02:21:56;;;;;;;29.80;2.30;;;;;;;-0.87;81.10;101595.88;105883;1270;22615;-59
2022/01/18 02:24:28;;;;;;;21.90;2.40;;;;;;;-0.88;81.05;101605.02;106321;1270;22560;-57
2022/01/18 02:27:00;;;;;;;13.40;1.30;;;;;;;-0.89;81.25;101608.37;106041;1270;25844;-59
2022/01/18 02:29:32;;;;;;;20.20;1.90;;;;;;;-0.90;81.31;101603.19;105937;1270;25556;-59
2022/01/18 02:32:03;;;;;;;12.10;1.40;;;;;;;-0.91;81.38;101607.34;106037;1270;22554;-59
2022/01/18 02:34:34;;;;;;;19.40;2.30;;;;;;;-0.91;81.42;101611.48;106257;1270;22561;-59
2022/01/18 02:37:07;;;;;;;15.80;1.70;;;;;;;-0.92;81.41;101615.08;106049;1271;22748;-65
2022/01/18 02:39:39;;;;;;;20.30;2.50;;;;;;;-0.92;81.53;101624.77;106145;1270;22564;-58
2022/01/18 02:42:14;;;;;;;23.90;2.50;;;;;;;-0.93;81.38;101623.34;106103;1270;22536;-59
2022/01/18 02:44:49;;;;;;;14.30;1.50;;;;;;;-0.94;81.59;101629.83;106133;1270;22698;-59
2022/01/18 02:47:23;;;;;;;20.60;1.60;;;;;;;-0.96;81.50;101627.94;106002;1270;22596;-61
2022/01/18 02:49:54;;;;;;;22.20;2.60;;;;;;;-0.97;81.58;101629.23;106028;1270;26306;-60
2022/01/18 02:52:25;;;;;;;21.20;2.50;;;;;;;-0.99;81.66;101627.80;106110;1270;25143;-60
2022/01/18 02:54:57;;;;;;;21.30;2.20;;;;;;;-1.00;81.77;101635.31;106017;1270;24230;-59
2022/01/18 02:57:29;;;;;;;19.90;2.00;;;;;;;-1.00;81.81;101636.72;106040;1270;22535;-59
2022/01/18 03:00:14;;;;;;;19.00;1.60;;;;;;;-1.01;81.83;101639.73;106122;1270;22806;-59
2022/01/18 03:05:37;;;;;;;18.30;1.40;;;;;;;-1.03;81.92;101629.15;106086;1270;22774;-60
2022/01/18 03:08:10;;;;;;;12.90;0.90;;;;;;;-1.05;82.02;101623.79;105973;1270;22556;-59
2022/01/18 03:10:42;;;;;;;19.10;2.30;;;;;;;-1.06;82.02;101625.02;106071;1270;24295;-60
2022/01/18 03:13:14;;;;;;;18.00;1.30;;;;;;;-1.06;82.10;101634.19;106027;1271;25533;-60
2022/01/18 03:15:45;;;;;;;24.50;2.10;;;;;;;-1.07;82.22;101643.09;105994;1270;22572;-60
2022/01/18 03:18:16;;;;;;;19.20;1.80;;;;;;;-1.08;82.11;101655.31;105997;1271;22566;-59
2022/01/18 03:20:49;;;;;;;21.70;2.30;;;;;;;-1.09;82.29;101654.57;106020;1270;22702;-58
2022/01/18 03:23:22;;;;;;;27.10;2.40;;;;;;;-1.11;82.41;101657.36;105905;1270;24647;-60
2022/01/18 03:25:56;;;;;;;22.40;2.10;;;;;;;-1.12;82.46;101659.60;106002;1270;24396;-59
2022/01/18 03:28:28;;;;;;;20.70;2.30;;;;;;;-1.12;82.54;101665.40;106010;1270;25606;-58
2022/01/18 03:30:59;;;;;;;16.00;1.70;;;;;;;-1.12;82.68;101677.06;106048;1270;25515;-59
2022/01/18 03:33:32;;;;;;;31.10;2.60;;;;;;;-1.12;82.64;101680.97;105923;1270;22568;-59
2022/01/18 03:36:05;;;;;;;17.90;1.20;;;;;;;-1.14;82.60;101680.25;106032;1270;22779;-60
2022/01/18 03:38:36;;;;;;;15.30;1.30;;;;;;;-1.15;82.71;101680.61;106030;1270;26861;-60
2022/01/18 03:41:08;;;;;;;23.20;1.90;;;;;;;-1.17;82.67;101676.98;106000;1271;22633;-59
2022/01/18 03:43:41;;;;;;;21.20;2.00;;;;;;;-1.18;82.95;101676.09;106086;1271;22537;-60
2022/01/18 03:46:12;;;;;;;19.20;2.10;;;;;;;-1.19;82.83;101683.77;106059;1270;24264;-60
2022/01/18 03:48:50;;;;;;;18.90;2.90;;;;;;;-1.20;82.95;101691.56;106081;1270;26729;-60
2022/01/18 03:51:22;;;;;;;25.30;1.70;;;;;;;-1.20;83.17;101700.73;106129;1270;25415;-61
2022/01/18 03:53:53;;;;;;;15.30;1.50;;;;;;;-1.20;83.04;101704.95;105957;1270;22550;-59
2022/01/18 03:56:24;;;;;;;10.20;1.20;;;;;;;-1.22;83.04;101707.50;105930;1270;22803;-59
2022/01/18 03:58:56;;;;;;;18.20;1.60;;;;;;;-1.23;83.38;101706.32;106032;1270;22641;-59
2022/01/18 04:01:27;;;;;;;26.10;3.10;;;;;;;-1.24;83.35;101705.05;106110;1270;22615;-59
2022/01/18 04:03:59;;;;;;;23.30;2.20;;;;;;;-1.24;83.46;101709.19;106023;1271;24754;-60
2022/01/18 04:06:31;;;;;;;19.50;2.10;;;;;;;-1.25;83.41;101712.15;106024;1271;22713;-60
2022/01/18 04:09:02;;;;;;;22.20;2.20;;;;;;;-1.26;83.49;101711.97;105933;1270;22692;-60
2022/01/18 04:11:33;;;;;;;13.90;1.50;;;;;;;-1.27;83.64;101709.36;106102;1271;24389;-60
2022/01/18 04:14:05;;;;;;;15.70;1.70;;;;;;;-1.28;83.46;101703.48;106058;1271;25107;-60
2022/01/18 04:16:44;;;;;;;17.90;2.20;;;;;;;-1.28;83.46;101707.94;106007;1271;23208;-59
2022/01/18 04:25:47;;;;;;;15.10;1.60;;;;;;;-1.29;83.53;101712.71;106148;1270;24168;-59
2022/01/18 04:28:00;;;;;;;18.80;2.60;;;;;;;-1.31;83.65;101725.81;105765;1270;22553;-59
2022/01/18 04:30:32;;;;;;;20.60;1.90;;;;;;;-1.31;83.55;101737.23;105891;1270;27021;-59
2022/01/18 04:33:03;;;;;;;20.90;1.90;;;;;;;-1.32;83.68;101740.34;106005;1270;23251;-60
2022/01/18 04:35:34;;;;;;;25.80;2.30;;;;;;;-1.33;83.46;101744.86;106067;1270;22487;-61
2022/01/18 04:38:05;;;;;;;19.00;2.20;;;;;;;-1.34;83.64;101755.02;106030;1270;22615;-60
2022/01/18 04:40:40;;;;;;;19.60;2.50;;;;;;;-1.35;83.59;101759.70;105943;1270;24451;-58
2022/01/18 04:43:17;;;;;;;23.30;2.30;;;;;;;-1.36;83.56;101760.61;106232;1270;24359;-59
2022/01/18 04:48:37;;;;;;;24.10;2.50;;;;;;;-1.39;83.62;101760.16;106065;1271;22541;-60
2022/01/18 04:51:11;;;;;;;20.60;2.60;;;;;;;-1.40;83.63;101762.32;106016;1270;22577;-60
2022/01/18 04:53:48;;;;;;;21.30;2.00;;;;;;;-1.42;83.75;101768.32;106167;1270;22546;-59
2022/01/18 04:56:28;;;;;;;28.40;2.50;;;;;;;-1.43;83.84;101769.65;106006;1270;22604;-60
2022/01/18 04:59:00;;;;;;;27.20;2.20;;;;;;;-1.44;83.89;101769.14;106095;1270;22602;-60
2022/01/18 05:01:31;;;;;;;20.30;2.60;;;;;;;-1.44;83.97;101769.99;105978;1270;24242;-59
2022/01/18 05:04:02;;;;;;;21.70;2.40;;;;;;;-1.44;84.03;101776.58;106029;1270;25597;-60
2022/01/18 05:06:34;;;;;;;24.20;3.10;;;;;;;-1.45;84.14;101783.53;106060;1271;25522;-68
2022/01/18 05:09:08;;;;;;;21.30;2.90;;;;;;;-1.46;83.98;101778.18;105957;1270;24254;-60
2022/01/18 05:11:49;;;;;;;20.60;2.40;;;;;;;-1.47;84.04;101775.58;105749;1270;22636;-57
2022/01/18 05:14:28;;;;;;;21.70;2.50;;;;;;;-1.49;84.16;101774.11;106090;1270;22740;-60
2022/01/18 05:17:08;;;;;;;20.30;1.80;;;;;;;-1.51;84.09;101779.55;105991;1271;24371;-59
2022/01/18 05:19:45;;;;;;;20.50;3.00;;;;;;;-1.51;84.32;101785.74;105954;1271;23164;-59
2022/01/18 05:25:06;;;;;;;17.60;1.90;;;;;;;-1.51;84.47;101793.64;106152;1271;24323;-60
2022/01/18 05:27:38;;;;;;;23.20;2.10;;;;;;;-1.52;84.56;101793.23;106095;1270;24806;-60
2022/01/18 05:30:12;;;;;;;15.20;1.80;;;;;;;-1.53;84.54;101789.08;106104;1270;22558;-59
2022/01/18 05:32:42;;;;;;;23.70;2.30;;;;;;;-1.54;84.53;101795.55;106327;1270;25684;-59
2022/01/18 05:35:14;;;;;;;23.50;2.40;;;;;;;-1.55;84.61;101795.83;105954;1271;25544;-59
2022/01/18 05:37:45;;;;;;;20.50;2.90;;;;;;;-1.54;84.85;101789.04;105988;1270;22588;-60
2022/01/18 05:40:17;;;;;;;24.50;1.90;;;;;;;-1.54;84.92;101788.88;106200;1270;22626;-60
2022/01/18 05:42:48;;;;;;;17.30;2.10;;;;;;;-1.53;84.72;101796.41;106279;1270;22612;-60
2022/01/18 05:45:20;;;;;;;20.90;2.70;;;;;;;-1.53;84.70;101798.06;105946;1270;22939;-59
2022/01/18 05:47:54;;;;;;;24.50;2.80;;;;;;;-1.54;84.76;101786.31;106011;1271;22595;-58
2022/01/18 05:50:26;;;;;;;19.00;2.90;;;;;;;-1.54;84.81;101781.84;106032;1270;22551;-60
2022/01/18 05:52:56;;;;;;;24.00;2.00;;;;;;;-1.55;84.83;101783.95;106040;1270;22711;-58
2022/01/18 05:55:28;;;;;;;24.20;2.40;;;;;;;-1.55;84.77;101780.42;105971;1271;22554;-60
2022/01/18 05:58:00;;;;;;;20.70;2.50;;;;;;;-1.56;84.92;101782.11;106350;1270;22690;-60
2022/01/18 06:00:32;;;;;;;19.20;2.40;;;;;;;-1.56;85.13;101784.16;109848;1269;22464;-59
2022/01/18 06:03:12;;;;;;;23.60;2.70;;;;;;;-1.55;85.09;101787.39;109826;1270;22464;-60
2022/01/18 06:08:31;;;;;;;26.90;3.30;;;;;;;-1.53;85.08;101785.31;105393;1275;22529;-59
2022/01/18 06:11:02;;;;;;;26.70;3.70;;;;;;;-1.53;85.25;101785.62;105246;1276;23648;-59
2022/01/18 06:13:35;;;;;;;21.00;2.40;;;;;;;-1.53;85.53;101783.83;105534;1274;22761;-59
2022/01/18 06:16:10;;;;;;;23.40;4.10;;;;;;;-1.53;85.33;101788.76;105467;1275;25672;-60
2022/01/18 06:18:41;;;;;;;21.70;2.70;;;;;;;-1.52;85.40;101795.27;105617;1274;25253;-66
2022/01/18 06:21:13;;;;;;;27.70;2.70;;;;;;;-1.52;85.45;101795.03;105400;1274;26392;-62
2022/01/18 06:23:45;;;;;;;20.90;2.50;;;;;;;-1.52;85.33;101798.86;105638;1274;25211;-60
2022/01/18 06:26:17;;;;;;;26.20;2.80;;;;;;;-1.53;85.71;101799.55;105684;1275;22542;-60
2022/01/18 06:28:50;;;;;;;33.50;4.50;;;;;;;-1.53;85.72;101796.98;105742;1275;22743;-60
2022/01/18 06:31:24;;;;;;;17.80;2.00;;;;;;;-1.53;85.49;101802.13;105458;1274;22554;-57
2022/01/18 06:33:56;;;;;;;18.90;2.70;;;;;;;-1.53;85.75;101805.34;105466;1274;26515;-62
2022/01/18 06:36:28;;;;;;;22.30;3.20;;;;;;;-1.53;85.89;101813.00;105448;1274;25407;-59
2022/01/18 06:39:00;;;;;;;30.80;3.90;;;;;;;-1.54;85.86;101815.56;105452;1276;22575;-59
2022/01/18 06:41:32;;;;;;;28.20;3.00;;;;;;;-1.53;85.96;101818.71;105395;1275;22677;-59
2022/01/18 06:44:04;;;;;;;21.50;3.70;;;;;;;-1.53;86.23;101819.98;105419;1274;22858;-60
2022/01/18 06:46:37;;;;;;;20.30;3.00;;;;;;;-1.52;86.39;101822.66;105575;1271;25749;-58
2022/01/18 06:49:08;;;;;;;29.60;3.70;;;;;;;-1.49;86.49;101827.42;105897;1270;23140;-59
2022/01/18 06:51:39;;;;;;;20.50;3.60;;;;;;;-1.45;86.63;101828.05;106058;1270;25519;-59
2022/01/18 06:54:15;;;;;;;24.60;3.90;;;;;;;-1.41;86.73;101831.89;106097;1269;22763;-59
2022/01/18 06:56:49;;;;;;;25.10;3.40;;;;;;;-1.39;86.75;101834.76;105973;1271;22771;-62
2022/01/18 06:59:21;;;;;;;26.50;3.80;;;;;;;-1.37;86.57;101841.15;105951;1270;25564;-60
2022/01/18 07:01:52;;;;;;;27.70;4.00;;;;;;;-1.35;86.70;101853.70;106023;1270;22569;-59
2022/01/18 07:04:23;;;;;;;21.50;2.90;;;;;;;-1.32;86.90;101865.36;106016;1270;25521;-59
2022/01/18 07:06:57;;;;;;;24.40;3.00;;;;;;;-1.29;87.05;101878.88;106106;1270;22557;-59
2022/01/18 07:09:28;;;;;;;25.80;4.60;;;;;;;-1.27;87.13;101873.06;107848;1270;25537;-60
2022/01/18 07:12:01;;;;;;;31.70;4.90;;;;;;;-1.25;86.91;101875.67;107436;1270;23480;-59
2022/01/18 07:14:32;;;;;;;31.10;3.50;;;;;;;-1.22;86.98;101882.48;106048;1270;22554;-62
2022/01/18 07:17:04;;;;;;;28.80;4.00;;;;;;;-1.19;86.90;101888.48;106117;1270;25117;-62
2022/01/18 07:19:36;;;;;;;18.80;2.10;;;;;;;-1.16;87.01;101902.11;106159;1270;24441;-61
2022/01/18 07:22:10;;;;;;;32.20;4.50;;;;;;;-1.12;86.97;101903.89;106108;1271;24374;-60
2022/01/18 07:24:45;;;;;;;33.20;4.20;;;;;;;-1.09;86.95;101909.22;106069;1270;23397;-59
2022/01/18 07:27:18;;;;;;;20.00;2.90;;;;;;;-1.05;86.96;101912.58;108847;1270;22738;-62
2022/01/18 07:29:49;;;;;;;23.90;3.00;;;;;;;-1.02;86.94;101918.75;106177;1270;22731;-61
2022/01/18 07:32:22;;;;;;;23.80;3.70;;;;;;;-0.99;87.04;101918.74;106025;1270;22691;-60
2022/01/18 07:34:55;;;;;;;18.50;3.00;;;;;;;-0.96;87.09;101917.23;106097;1270;22537;-61
2022/01/18 07:37:26;;;;;;;22.10;4.10;;;;;;;-0.93;86.93;101918.86;105901;1270;25525;-61
2022/01/18 07:39:58;;;;;;;34.80;5.70;;;;;;;-0.90;87.11;101921.04;106225;1270;25464;-60
2022/01/18 07:42:29;;;;;;;25.20;4.50;;;;;;;-0.88;86.95;101923.98;106286;1270;25770;-60
2022/01/18 07:45:02;;;;;;;27.40;6.00;;;;;;;-0.85;87.15;101930.16;105928;1270;22743;-60
2022/01/18 07:47:34;;;;;;;29.20;4.90;;;;;;;-0.82;87.02;101927.64;105982;1271;22618;-59
2022/01/18 07:50:07;;;;;;;23.70;4.30;;;;;;;-0.79;87.26;101934.11;106055;1270;24215;-59
2022/01/18 07:52:40;;;;;;;28.80;4.80;;;;;;;-0.77;87.07;101930.45;106147;1271;22572;-59
2022/01/18 07:55:13;;;;;;;26.00;3.90;;;;;;;-0.74;87.07;101941.10;106079;1271;22646;-59
2022/01/18 07:57:46;;;;;;;28.40;5.80;;;;;;;-0.72;87.08;101945.93;105981;1271;22831;-58
2022/01/18 08:00:19;;;;;;;20.00;4.10;;;;;;;-0.70;87.12;101952.56;106152;1270;25578;-59
2022/01/18 08:02:50;;;;;;;32.80;4.90;;;;;;;-0.68;87.33;101957.21;106006;1271;22556;-59
2022/01/18 08:05:22;;;;;;;25.30;3.60;;;;;;;-0.67;87.16;101953.32;105970;1270;23109;-59
2022/01/18 08:07:53;;;;;;;30.40;6.10;;;;;;;-0.65;87.39;101966.60;106062;1270;22876;-59
2022/01/18 08:10:30;;;;;;;19.60;4.30;;;;;;;-0.63;87.28;101969.23;105833;1270;22561;-59
2022/01/18 08:13:05;;;;;;;27.90;5.40;;;;;;;-0.61;87.42;101970.83;105990;1271;22594;-59
2022/01/18 08:15:39;;;;;;;22.80;4.00;;;;;;;-0.58;87.15;101970.97;105936;1270;27651;-59
2022/01/18 08:18:13;;;;;;;30.50;4.20;;;;;;;-0.54;87.22;101976.08;106133;1270;26065;-59
2022/01/18 08:20:46;;;;;;;29.80;4.40;;;;;;;-0.53;87.37;101981.36;106031;1271;26372;-59
2022/01/18 08:23:17;;;;;;;30.30;4.50;;;;;;;-0.51;87.40;101980.36;106064;1271;22705;-60
2022/01/18 08:25:49;;;;;;;25.30;4.90;;;;;;;-0.49;87.38;101977.52;106013;1271;22538;-59
2022/01/18 08:28:21;;;;;;;28.50;6.20;;;;;;;-0.47;87.40;101978.17;105896;1270;22610;-60
2022/01/18 08:30:52;;;;;;;32.40;6.40;;;;;;;-0.44;87.38;101983.87;106019;1271;22553;-59
2022/01/18 08:33:24;;;;;;;30.50;4.90;;;;;;;-0.41;87.34;101986.98;105951;1271;22627;-59
2022/01/18 08:35:56;;;;;;;28.50;3.30;;;;;;;-0.38;87.18;102002.73;106006;1271;24273;-60
2022/01/18 08:38:31;;;;;;;27.20;4.40;;;;;;;-0.35;87.30;102003.56;106080;1270;24360;-60
2022/01/18 08:41:04;;;;;;;32.80;4.70;;;;;;;-0.33;87.34;101999.91;106090;1268;23107;-59
2022/01/18 08:43:37;;;;;;;25.10;4.60;;;;;;;-0.30;87.11;102003.12;106030;1271;25576;-60
2022/01/18 08:46:10;;;;;;;24.80;4.30;;;;;;;-0.28;87.32;102004.56;105984;1271;24440;-59
2022/01/18 08:48:42;;;;;;;26.70;4.50;;;;;;;-0.26;87.25;102007.19;106043;1270;22545;-59
2022/01/18 08:51:14;;;;;;;27.10;4.80;;;;;;;-0.25;87.34;102007.45;106024;1271;24309;-59
2022/01/18 08:53:50;;;;;;;27.70;5.40;;;;;;;-0.22;87.20;102007.51;106061;1271;22538;-59
2022/01/18 08:56:23;;;;;;;30.70;3.70;;;;;;;-0.18;87.12;102016.84;105967;1271;22554;-59
2022/01/18 08:58:55;;;;;;;32.60;4.30;;;;;;;-0.15;86.98;102018.38;106049;1270;25591;-58
2022/01/18 09:01:27;;;;;;;36.80;5.10;;;;;;;-0.13;87.07;102017.02;106032;1270;24311;-60
2022/01/18 09:04:01;;;;;;;28.00;4.70;;;;;;;-0.11;86.96;102024.35;106178;1270;24365;-60
2022/01/18 09:06:32;;;;;;;30.60;5.50;;;;;;;-0.09;86.87;102020.54;106171;1271;25369;-60
2022/01/18 09:09:07;;;;;;;28.40;4.20;;;;;;;-0.06;86.66;102029.94;105970;1271;24412;-59
2022/01/18 09:11:39;;;;;;;20.00;3.30;;;;;;;-0.03;86.75;102031.48;106109;1271;25380;-60
2022/01/18 09:14:11;;;;;;;26.40;4.50;;;;;;;-0.02;86.59;102052.21;106063;1270;24386;-59
2022/01/18 09:16:42;;;;;;;23.20;4.40;;;;;;;-0.01;86.61;102057.48;106035;1271;22539;-60
2022/01/18 09:19:15;;;;;;;26.00;4.90;;;;;;;0.01;86.64;102059.48;105964;1271;24422;-60
2022/01/18 09:21:48;;;;;;;32.50;4.70;;;;;;;0.04;86.53;102065.10;106134;1271;25565;-60
2022/01/18 09:24:22;;;;;;;26.60;4.60;;;;;;;0.05;86.40;102069.59;105945;1271;24264;-60
2022/01/18 09:26:54;;;;;;;34.00;6.10;;;;;;;0.05;86.37;102065.21;106013;1271;22709;-60
2022/01/18 09:29:25;;;;;;;27.50;3.30;;;;;;;0.06;86.42;102067.03;105967;1270;22554;-62
2022/01/18 09:31:57;;;;;;;27.80;4.80;;;;;;;0.08;86.29;102067.08;105996;1271;25276;-59
2022/01/18 09:34:29;;;;;;;23.20;4.20;;;;;;;0.10;86.17;102077.77;106055;1271;27023;-59
2022/01/18 09:37:00;;;;;;;29.40;5.00;;;;;;;0.12;86.18;102083.23;106151;1271;24340;-59
2022/01/18 09:39:32;;;;;;;26.50;4.80;;;;;;;0.15;86.38;102073.23;105908;1271;25268;-60
2022/01/18 09:42:08;;;;;;;24.10;3.60;;;;;;;0.18;86.36;102069.75;105914;1271;22539;-59
2022/01/18 09:44:40;;;;;;;27.90;5.20;;;;;;;0.21;86.12;102077.59;106103;1270;25474;-59
2022/01/18 09:47:11;;;;;;;23.70;4.00;;;;;;;0.22;86.09;102082.08;106147;1270;24227;-62
2022/01/18 09:49:43;;;;;;;26.30;5.60;;;;;;;0.23;85.98;102078.56;106309;1271;22543;-59
2022/01/18 09:52:25;;;;;;;30.00;7.20;;;;;;;0.24;86.14;102075.77;106082;1271;27145;-59
2022/01/18 09:54:57;;;;;;;36.30;5.00;;;;;;;0.29;85.89;102087.86;106086;1271;26494;-58
2022/01/18 09:57:30;;;;;;;29.30;5.60;;;;;;;0.32;86.03;102089.95;106513;1271;24259;-60
2022/01/18 10:00:01;;;;;;;29.00;4.70;;;;;;;0.36;86.10;102086.83;106177;1270;24231;-59
2022/01/18 10:02:35;;;;;;;22.30;5.10;;;;;;;0.40;85.94;102086.89;106028;1271;23064;-59
2022/01/18 10:05:23;;;;;;;27.10;5.10;;;;;;;0.42;85.76;102085.91;106006;1270;22593;-59
2022/01/18 10:08:04;;;;;;;38.10;6.80;;;;;;;0.46;85.91;102087.39;106038;1270;25598;-60
2022/01/18 10:10:42;;;;;;;20.80;3.60;;;;;;;0.51;85.67;102096.66;106012;1270;22548;-59
2022/01/18 10:13:20;;;;;;;22.10;5.70;;;;;;;0.55;85.41;102100.11;106071;1271;25134;-59
2022/01/18 10:16:07;;;;;;;24.70;5.30;;;;;;;0.56;85.19;102102.72;106103;1271;25337;-59
2022/01/18 10:18:44;;;;;;;27.20;4.30;;;;;;;0.57;85.24;102105.02;105964;1271;22544;-59
2022/01/18 10:21:28;;;;;;;25.40;4.70;;;;;;;0.60;85.38;102097.37;106004;1271;22603;-59
2022/01/18 10:24:17;;;;;;;26.40;7.10;;;;;;;0.66;85.39;102100.70;105884;1271;22612;-59
2022/01/18 10:26:51;;;;;;;37.20;6.40;;;;;;;0.72;85.16;102105.27;105974;1271;22691;-60
2022/01/18 10:29:28;;;;;;;34.60;7.30;;;;;;;0.73;84.80;102102.09;105952;1271;22555;-62
2022/01/18 10:32:10;;;;;;;25.30;5.70;;;;;;;0.77;84.81;102107.55;106290;1271;25543;-59
2022/01/18 10:35:04;;;;;;;19.70;4.10;;;;;;;0.78;84.55;102108.59;106006;1271;22547;-59
2022/01/18 10:37:41;;;;;;;19.90;3.40;;;;;;;0.74;84.24;102105.40;105914;1271;22548;-58
2022/01/18 10:40:17;;;;;;;28.20;3.80;;;;;;;0.73;84.06;102111.09;105913;1271;22707;-59
2022/01/18 10:42:52;;;;;;;24.50;4.50;;;;;;;0.67;83.21;102113.59;106148;1271;22538;-59
2022/01/18 10:45:30;;;;;;;34.00;5.70;;;;;;;0.63;83.78;102109.52;106180;1270;22771;-60
2022/01/18 10:48:10;;;;;;;32.20;6.10;;;;;;;0.66;84.45;102112.02;106043;1271;23064;-59
2022/01/18 10:50:43;;;;;;;24.70;4.20;;;;;;;0.70;84.51;102111.05;105958;1271;24308;-60
2022/01/18 10:53:17;;;;;;;29.30;6.00;;;;;;;0.74;84.27;102120.31;106142;1270;22892;-61
2022/01/18 10:55:51;;;;;;;17.80;3.40;;;;;;;0.75;83.81;102123.16;105845;1271;25506;-62
2022/01/18 10:58:24;;;;;;;29.30;5.00;;;;;;;0.75;83.57;102124.56;106153;1271;22621;-60
2022/01/18 11:01:16;;;;;;;22.80;4.00;;;;;;;0.75;83.69;102125.05;106136;1271;25578;-60
2022/01/18 11:04:16;;;;;;;27.20;5.50;;;;;;;0.77;83.72;102132.09;106130;1270;22576;-60
2022/01/18 11:07:00;;;;;;;28.60;5.40;;;;;;;0.83;84.34;102122.59;105996;1271;25210;-59
2022/01/18 11:09:32;;;;;;;23.00;3.90;;;;;;;0.91;84.02;102123.98;106289;1270;22566;-59
2022/01/18 11:12:05;;;;;;;30.10;6.60;;;;;;;0.94;83.54;102121.98;106104;1269;24330;-60
2022/01/18 11:14:40;;;;;;;24.10;4.50;;;;;;;0.92;83.79;102118.73;106102;1271;25807;-59
2022/01/18 11:17:22;;;;;;;26.20;5.00;;;;;;;0.93;83.57;102119.14;106151;1271;22560;-59
2022/01/18 11:19:57;;;;;;;21.90;3.80;;;;;;;0.92;83.29;102119.41;105975;1271;22745;-59
2022/01/18 11:22:28;;;;;;;24.30;4.00;;;;;;;0.92;83.43;102118.95;106044;1271;24446;-58
2022/01/18 11:25:02;;;;;;;21.50;3.90;;;;;;;0.94;83.58;102119.41;106171;1270;22776;-59
2022/01/18 11:27:35;;;;;;;16.70;3.40;;;;;;;0.97;83.22;102115.34;106142;1271;24447;-59
2022/01/18 11:30:08;;;;;;;26.70;4.10;;;;;;;0.99;83.00;102115.70;106213;1271;22717;-60
2022/01/18 11:32:40;;;;;;;17.00;2.70;;;;;;;0.97;82.45;102110.54;106342;1271;22605;-59
2022/01/18 11:35:16;;;;;;;24.90;3.80;;;;;;;0.91;82.17;102113.67;106059;1271;25519;-60
2022/01/18 11:38:03;;;;;;;27.80;3.80;;;;;;;0.82;82.33;102109.28;106119;1270;23094;-59
2022/01/18 11:40:46;;;;;;;27.70;5.40;;;;;;;0.75;82.84;102115.00;105920;1270;23045;-60
2022/01/18 11:43:33;;;;;;;41.90;6.10;;;;;;;0.74;82.91;102112.86;106124;1271;23053;-59
2022/01/18 11:46:22;;;;;;;34.30;5.30;;;;;;;0.77;83.22;102113.94;106078;1271;22793;-60
2022/01/18 11:49:02;;;;;;;22.90;3.70;;;;;;;0.85;83.09;102115.23;106125;1271;22532;-60
2022/01/18 11:51:43;;;;;;;26.00;5.20;;;;;;;0.91;83.22;102113.22;106142;1271;22538;-59
2022/01/18 11:54:29;;;;;;;28.20;5.20;;;;;;;1.00;83.21;102115.46;106043;1271;25720;-59
2022/01/18 11:57:01;;;;;;;24.10;4.60;;;;;;;1.07;83.13;102122.89;105966;1272;22544;-61
2022/01/18 11:59:43;;;;;;;20.20;3.80;;;;;;;1.14;82.90;102124.98;106130;1271;22547;-60
2022/01/18 12:02:29;;;;;;;30.00;4.80;;;;;;;1.21;82.52;102123.83;106095;1271;225940;-60
2022/01/18 12:05:13;;;;;;;19.30;3.60;;;;;;;1.23;82.32;102118.91;106015;1271;25372;-60
2022/01/18 12:07:57;;;;;;;19.70;3.40;;;;;;;1.27;82.08;102115.82;106174;1270;25345;-60
2022/01/18 12:10:48;;;;;;;24.70;3.90;;;;;;;1.27;81.98;102116.36;105899;1271;22601;-60
2022/01/18 12:13:40;;;;;;;27.20;4.90;;;;;;;1.26;81.92;102117.52;105944;1272;25433;-61
2022/01/18 12:16:21;;;;;;;24.90;3.80;;;;;;;1.23;81.60;102114.19;106018;1271;25384;-59
2022/01/18 12:18:55;;;;;;;24.60;4.10;;;;;;;1.22;81.84;102107.02;106150;1271;22572;-60
2022/01/18 12:21:28;;;;;;;23.70;5.40;;;;;;;1.21;81.94;102102.20;106030;1269;22563;-60
2022/01/18 12:24:14;;;;;;;25.50;4.80;;;;;;;1.24;82.34;102102.02;105858;1271;24231;-63